sensor_id;sensor_type;location;lat;lon;timestamp;pressure;altitude;pressure_sealevel;temperature;humidity
59987;BME280;46181;51.498;5.392;2023-04-23T00:03:24;100667.3;;;13.22;62.59863
59987;BME280;46181;51.498;5.392;2023-04-23T00:07:53;100660.6;;;13.21;62.6084
59987;BME280;46181;51.498;5.392;2023-04-23T00:12:24;100657.1;;;13.21;62.64258
59987;BME280;46181;51.498;5.392;2023-04-23T00:16:54;100652;;;13.2;62.66406
59987;BME280;46181;51.498;5.392;2023-04-23T00:21:23;100650;;;13.22;62.61035
59987;BME280;46181;51.498;5.392;2023-04-23T00:25:53;100654.8;;;13.22;62.50781
59987;BME280;46181;51.498;5.392;2023-04-23T00:30:23;100654.4;;;13.17;62.50195
59987;BME280;46181;51.498;5.392;2023-04-23T00:34:53;100653.1;;;13.14;62.53027
59987;BME280;46181;51.498;5.392;2023-04-23T00:39:23;100646.9;;;13.1;62.60352
59987;BME280;46181;51.498;5.392;2023-04-23T00:43:53;100644.9;;;13.07;62.64453
59987;BME280;46181;51.498;5.392;2023-04-23T00:48:24;100636.1;;;13.04;62.81055
59987;BME280;46181;51.498;5.392;2023-04-23T00:52:53;100628.2;;;13.1;62.8877
59987;BME280;46181;51.498;5.392;2023-04-23T00:57:23;100621.6;;;13.2;62.91309
59987;BME280;46181;51.498;5.392;2023-04-23T01:01:53;100621.8;;;13.32;62.83887
59987;BME280;46181;51.498;5.392;2023-04-23T01:06:23;100610.6;;;13.41;62.72852
59987;BME280;46181;51.498;5.392;2023-04-23T01:10:53;100606.9;;;13.45;62.5752
59987;BME280;46181;51.498;5.392;2023-04-23T01:15:23;100600.8;;;13.47;62.5332
59987;BME280;46181;51.498;5.392;2023-04-23T01:19:53;100606.6;;;13.42;62.54785
59987;BME280;46181;51.498;5.392;2023-04-23T01:24:23;100600.3;;;13.38;62.71191
59987;BME280;46181;51.498;5.392;2023-04-23T01:28:54;100605.8;;;13.39;62.83887
59987;BME280;46181;51.498;5.392;2023-04-23T01:33:24;100600.7;;;13.38;62.93848
59987;BME280;46181;51.498;5.392;2023-04-23T01:37:54;100596.3;;;13.4;63.04297
59987;BME280;46181;51.498;5.392;2023-04-23T01:42:23;100595.7;;;13.47;63.01953
59987;BME280;46181;51.498;5.392;2023-04-23T01:46:53;100592.4;;;13.53;63.00488
59987;BME280;46181;51.498;5.392;2023-04-23T01:51:23;100591.6;;;13.57;63.01074
59987;BME280;46181;51.498;5.392;2023-04-23T01:55:54;100599.2;;;13.64;62.94043
59987;BME280;46181;51.498;5.392;2023-04-23T02:00:23;100596.3;;;13.61;62.76758
59987;BME280;46181;51.498;5.392;2023-04-23T02:04:53;100596.4;;;13.55;62.81445
59987;BME280;46181;51.498;5.392;2023-04-23T02:09:23;100594.1;;;13.42;62.97754
59987;BME280;46181;51.498;5.392;2023-04-23T02:13:53;100590.7;;;13.37;63.03906
59987;BME280;46181;51.498;5.392;2023-04-23T02:18:23;100581.2;;;13.35;63.30664
59987;BME280;46181;51.498;5.392;2023-04-23T02:22:53;100575.4;;;13.36;63.45508
59987;BME280;46181;51.498;5.392;2023-04-23T02:27:23;100580.3;;;13.41;63.54199
59987;BME280;46181;51.498;5.392;2023-04-23T02:31:53;100583.4;;;13.49;63.47363
59987;BME280;46181;51.498;5.392;2023-04-23T02:36:23;100585.4;;;13.49;63.33887
59987;BME280;46181;51.498;5.392;2023-04-23T02:40:53;100578.4;;;13.41;63.37402
59987;BME280;46181;51.498;5.392;2023-04-23T02:45:23;100582.6;;;13.38;63.42383
59987;BME280;46181;51.498;5.392;2023-04-23T02:49:53;100574.4;;;13.36;63.49023
59987;BME280;46181;51.498;5.392;2023-04-23T02:54:23;100577.2;;;13.39;63.47266
59987;BME280;46181;51.498;5.392;2023-04-23T02:58:53;100572.4;;;13.43;63.4541
59987;BME280;46181;51.498;5.392;2023-04-23T03:03:23;100572.3;;;13.51;63.40918
59987;BME280;46181;51.498;5.392;2023-04-23T03:07:53;100566.8;;;13.58;63.3291
59987;BME280;46181;51.498;5.392;2023-04-23T03:12:23;100564.4;;;13.6;63.18457
59987;BME280;46181;51.498;5.392;2023-04-23T03:16:53;100555.5;;;13.54;63.19922
59987;BME280;46181;51.498;5.392;2023-04-23T03:21:23;100550.8;;;13.49;63.36133
59987;BME280;46181;51.498;5.392;2023-04-23T03:25:53;100549.6;;;13.52;63.53516
59987;BME280;46181;51.498;5.392;2023-04-23T03:30:23;100555;;;13.57;63.58691
59987;BME280;46181;51.498;5.392;2023-04-23T03:34:53;100550.5;;;13.62;63.52637
59987;BME280;46181;51.498;5.392;2023-04-23T03:39:23;100553;;;13.69;63.49219
59987;BME280;46181;51.498;5.392;2023-04-23T03:43:53;100545.6;;;13.75;63.43262
59987;BME280;46181;51.498;5.392;2023-04-23T03:48:23;100549.5;;;13.83;63.43262
59987;BME280;46181;51.498;5.392;2023-04-23T03:52:53;100551.8;;;13.85;63.39063
59987;BME280;46181;51.498;5.392;2023-04-23T03:57:23;100551;;;13.87;63.31445
59987;BME280;46181;51.498;5.392;2023-04-23T04:01:53;100554.6;;;13.86;63.3125
59987;BME280;46181;51.498;5.392;2023-04-23T04:06:23;100554;;;13.81;63.37305
59987;BME280;46181;51.498;5.392;2023-04-23T04:10:53;100558.9;;;13.73;63.37402
59987;BME280;46181;51.498;5.392;2023-04-23T04:15:23;100557.2;;;13.63;63.42773
59987;BME280;46181;51.498;5.392;2023-04-23T04:19:53;100562.9;;;13.5;63.52148
59987;BME280;46181;51.498;5.392;2023-04-23T04:24:23;100558.3;;;13.39;63.70898
59987;BME280;46181;51.498;5.392;2023-04-23T04:28:53;100566.9;;;13.34;63.83789
59987;BME280;46181;51.498;5.392;2023-04-23T04:33:23;100562.9;;;13.34;63.89453
59987;BME280;46181;51.498;5.392;2023-04-23T04:37:53;100559.4;;;13.35;63.88379
59987;BME280;46181;51.498;5.392;2023-04-23T04:42:23;100555.7;;;13.33;63.82422
59987;BME280;46181;51.498;5.392;2023-04-23T04:46:53;100560.6;;;13.28;63.79395
59987;BME280;46181;51.498;5.392;2023-04-23T04:51:23;100556.4;;;13.18;63.84766
59987;BME280;46181;51.498;5.392;2023-04-23T04:55:53;100563;;;13.11;63.92871
59987;BME280;46181;51.498;5.392;2023-04-23T05:00:36;100564.3;;;12.96;64.22266
59987;BME280;46181;51.498;5.392;2023-04-23T05:04:53;100567.8;;;13;64.16016
59987;BME280;46181;51.498;5.392;2023-04-23T05:09:23;100566.8;;;13.04;64.26855
59987;BME280;46181;51.498;5.392;2023-04-23T05:13:53;100561.3;;;13.18;64.3125
59987;BME280;46181;51.498;5.392;2023-04-23T05:18:23;100562.8;;;13.41;64.34668
59987;BME280;46181;51.498;5.392;2023-04-23T05:22:53;100562.9;;;13.68;64.20313
59987;BME280;46181;51.498;5.392;2023-04-23T05:27:23;100565.8;;;13.99;63.84082
59987;BME280;46181;51.498;5.392;2023-04-23T05:31:53;100569.6;;;14.08;63.54883
59987;BME280;46181;51.498;5.392;2023-04-23T05:36:23;100572.6;;;14.12;63.50879
59987;BME280;46181;51.498;5.392;2023-04-23T05:40:53;100571.5;;;14.23;63.54688
59987;BME280;46181;51.498;5.392;2023-04-23T05:45:23;100562.9;;;14.3;63.55762
59987;BME280;46181;51.498;5.392;2023-04-23T05:49:54;100567.9;;;14.44;63.63379
59987;BME280;46181;51.498;5.392;2023-04-23T05:54:23;100560.3;;;14.56;63.55957
59987;BME280;46181;51.498;5.392;2023-04-23T05:58:54;100563.7;;;14.64;63.53906
59987;BME280;46181;51.498;5.392;2023-04-23T06:03:23;100564;;;14.72;63.64063
59987;BME280;46181;51.498;5.392;2023-04-23T06:07:53;100565.3;;;14.92;63.68164
59987;BME280;46181;51.498;5.392;2023-04-23T06:12:23;100554.1;;;15.13;63.64355
59987;BME280;46181;51.498;5.392;2023-04-23T06:16:53;100551.3;;;15.35;63.49414
59987;BME280;46181;51.498;5.392;2023-04-23T06:21:23;100546.1;;;15.53;63.73438
59987;BME280;46181;51.498;5.392;2023-04-23T06:25:53;100543.4;;;15.75;63.92578
59987;BME280;46181;51.498;5.392;2023-04-23T06:30:24;100531.2;;;15.92;63.83691
59987;BME280;46181;51.498;5.392;2023-04-23T06:34:53;100539.3;;;16.1;63.78223
59987;BME280;46181;51.498;5.392;2023-04-23T06:39:23;100527.6;;;16.24;63.80469
59987;BME280;46181;51.498;5.392;2023-04-23T06:43:53;100532.6;;;16.4;63.64453
59987;BME280;46181;51.498;5.392;2023-04-23T06:48:23;100534.5;;;16.56;63.64355
59987;BME280;46181;51.498;5.392;2023-04-23T06:52:53;100524.5;;;16.72;63.58789
59987;BME280;46181;51.498;5.392;2023-04-23T06:57:23;100525.1;;;16.91;63.26172
59987;BME280;46181;51.498;5.392;2023-04-23T07:01:53;100516.2;;;17.11;63.07324
59987;BME280;46181;51.498;5.392;2023-04-23T07:06:23;100517.9;;;17.2;62.5498
59987;BME280;46181;51.498;5.392;2023-04-23T07:10:53;100516.7;;;17.36;62.37695
59987;BME280;46181;51.498;5.392;2023-04-23T07:15:23;100517.6;;;17.49;62.39648
59987;BME280;46181;51.498;5.392;2023-04-23T07:19:53;100515.5;;;17.68;62.20703
59987;BME280;46181;51.498;5.392;2023-04-23T07:24:23;100513.7;;;17.82;62.00879
59987;BME280;46181;51.498;5.392;2023-04-23T07:28:53;100509.6;;;17.95;61.69629
59987;BME280;46181;51.498;5.392;2023-04-23T07:33:24;100512;;;18.11;61.37305
59987;BME280;46181;51.498;5.392;2023-04-23T07:37:53;100509.9;;;18.25;60.93652
59987;BME280;46181;51.498;5.392;2023-04-23T07:42:23;100501.7;;;18.35;60.05664
59987;BME280;46181;51.498;5.392;2023-04-23T07:46:53;100499.2;;;18.51;59.87109
59987;BME280;46181;51.498;5.392;2023-04-23T07:51:23;100496.7;;;18.75;58.67676
59987;BME280;46181;51.498;5.392;2023-04-23T07:55:53;100492.5;;;18.91;57.35449
59987;BME280;46181;51.498;5.392;2023-04-23T08:00:24;100494.4;;;19.01;56.50781
59987;BME280;46181;51.498;5.392;2023-04-23T08:04:53;100483.9;;;19.13;55.6709
59987;BME280;46181;51.498;5.392;2023-04-23T08:09:23;100481.9;;;19.23;54.99512
59987;BME280;46181;51.498;5.392;2023-04-23T08:13:53;100484.6;;;19.38;54.77246
59987;BME280;46181;51.498;5.392;2023-04-23T08:18:23;100482.5;;;19.58;54.18848
59987;BME280;46181;51.498;5.392;2023-04-23T08:22:53;100476.9;;;19.76;53.49609
59987;BME280;46181;51.498;5.392;2023-04-23T08:27:23;100469.6;;;19.97;52.97949
59987;BME280;46181;51.498;5.392;2023-04-23T08:31:53;100465.1;;;20.19;52.60156
59987;BME280;46181;51.498;5.392;2023-04-23T08:36:23;100467.6;;;20.39;51.39258
59987;BME280;46181;51.498;5.392;2023-04-23T08:40:55;100467;;;20.58;50.6748
59987;BME280;46181;51.498;5.392;2023-04-23T08:45:24;100465.5;;;20.79;49.74121
59987;BME280;46181;51.498;5.392;2023-04-23T08:49:55;100458;;;20.84;49.28418
59987;BME280;46181;51.498;5.392;2023-04-23T08:54:27;100465.4;;;20.93;48.41602
59987;BME280;46181;51.498;5.392;2023-04-23T08:58:54;100463.2;;;21.04;47.2832
59987;BME280;46181;51.498;5.392;2023-04-23T09:03:24;100460.2;;;21.1;47.25488
59987;BME280;46181;51.498;5.392;2023-04-23T09:07:53;100454;;;21.19;46.90527
59987;BME280;46181;51.498;5.392;2023-04-23T09:12:23;100460.3;;;21.29;46.00098
59987;BME280;46181;51.498;5.392;2023-04-23T09:16:53;100452.3;;;21.3;45.63281
59987;BME280;46181;51.498;5.392;2023-04-23T09:21:23;100447.9;;;21.42;45.00684
59987;BME280;46181;51.498;5.392;2023-04-23T09:25:53;100445.8;;;21.64;44.80957
59987;BME280;46181;51.498;5.392;2023-04-23T09:30:24;100440.8;;;22.15;43.24707
59987;BME280;46181;51.498;5.392;2023-04-23T09:34:53;100445.3;;;22.39;42.06152
59987;BME280;46181;51.498;5.392;2023-04-23T09:39:24;100432.4;;;22.54;41.21582
59987;BME280;46181;51.498;5.392;2023-04-23T09:43:55;100426.4;;;22.76;41.14355
59987;BME280;46181;51.498;5.392;2023-04-23T09:48:23;100428.7;;;23.05;40.33203
59987;BME280;46181;51.498;5.392;2023-04-23T09:52:56;100434.2;;;23.18;39.76074
59987;BME280;46181;51.498;5.392;2023-04-23T09:57:23;100429;;;23.03;39.34082
59987;BME280;46181;51.498;5.392;2023-04-23T10:01:53;100419.5;;;22.96;39.68262
59987;BME280;46181;51.498;5.392;2023-04-23T10:06:28;100413.6;;;22.93;38.99316
59987;BME280;46181;51.498;5.392;2023-04-23T10:10:53;100418.2;;;23.12;39.16211
59987;BME280;46181;51.498;5.392;2023-04-23T10:15:24;100414.8;;;23.37;39.14941
59987;BME280;46181;51.498;5.392;2023-04-23T10:19:53;100411.9;;;23.52;38.64941
59987;BME280;46181;51.498;5.392;2023-04-23T10:24:26;100404.5;;;23.84;37.7666
59987;BME280;46181;51.498;5.392;2023-04-23T10:28:55;100414.1;;;24.05;37.30469
59987;BME280;46181;51.498;5.392;2023-04-23T10:33:24;100408.6;;;24.07;36.86328
59987;BME280;46181;51.498;5.392;2023-04-23T10:37:54;100401;;;23.94;37.26074
59987;BME280;46181;51.498;5.392;2023-04-23T10:42:24;100395.2;;;23.86;37.4873
59987;BME280;46181;51.498;5.392;2023-04-23T10:46:58;100391.2;;;23.73;37.26563
59987;BME280;46181;51.498;5.392;2023-04-23T10:51:26;100385.2;;;23.74;37.50098
59987;BME280;46181;51.498;5.392;2023-04-23T11:00:24;100372.5;;;24.31;37.12793
59987;BME280;46181;51.498;5.392;2023-04-23T11:04:57;100358.6;;;24.59;36.57813
59987;BME280;46181;51.498;5.392;2023-04-23T11:09:39;100354.9;;;24.35;36.61719
59987;BME280;46181;51.498;5.392;2023-04-23T11:14:00;100362.8;;;24.25;36.62012
59987;BME280;46181;51.498;5.392;2023-04-23T11:18:23;100351.5;;;24.18;36.55664
59987;BME280;46181;51.498;5.392;2023-04-23T11:22:54;100344.2;;;24.28;36.4707
59987;BME280;46181;51.498;5.392;2023-04-23T11:27:24;100331.9;;;24.25;36.10645
59987;BME280;46181;51.498;5.392;2023-04-23T11:31:54;100334.3;;;24.07;37.84375
59987;BME280;46181;51.498;5.392;2023-04-23T11:36:23;100315.4;;;23;40.49023
59987;BME280;46181;51.498;5.392;2023-04-23T11:40:54;100325.6;;;22.24;42.87207
59987;BME280;46181;51.498;5.392;2023-04-23T11:45:30;100313.1;;;22.19;43.80762
59987;BME280;46181;51.498;5.392;2023-04-23T11:49:53;100298;;;22.55;45.43457
59987;BME280;46181;51.498;5.392;2023-04-23T11:54:27;100290.4;;;22.91;45.38867
59987;BME280;46181;51.498;5.392;2023-04-23T11:59:01;100281.9;;;23.23;44.53809
59987;BME280;46181;51.498;5.392;2023-04-23T12:03:23;100266.8;;;23.41;42.64648
59987;BME280;46181;51.498;5.392;2023-04-23T12:08:01;100263.1;;;23.68;40.9707
59987;BME280;46181;51.498;5.392;2023-04-23T12:12:23;100252.1;;;24.13;39.07422
59987;BME280;46181;51.498;5.392;2023-04-23T12:16:54;100258.1;;;24.27;37.29883
59987;BME280;46181;51.498;5.392;2023-04-23T12:21:23;100250.4;;;24.24;36.24512
59987;BME280;46181;51.498;5.392;2023-04-23T12:25:53;100239.4;;;24.2;35.50684
59987;BME280;46181;51.498;5.392;2023-04-23T12:30:25;100233.2;;;24.11;35.41797
59987;BME280;46181;51.498;5.392;2023-04-23T12:35:03;100216.9;;;24.39;35.27637
59987;BME280;46181;51.498;5.392;2023-04-23T12:39:34;100216.2;;;24.57;34.8916
59987;BME280;46181;51.498;5.392;2023-04-23T12:43:53;100208.5;;;24.66;34.74707
59987;BME280;46181;51.498;5.392;2023-04-23T12:48:23;100194.9;;;24.83;34.36133
59987;BME280;46181;51.498;5.392;2023-04-23T12:52:53;100189.2;;;24.96;33.8916
59987;BME280;46181;51.498;5.392;2023-04-23T12:57:23;100183.6;;;25.21;33.13672
59987;BME280;46181;51.498;5.392;2023-04-23T13:01:53;100186.6;;;25.36;33.13574
59987;BME280;46181;51.498;5.392;2023-04-23T13:06:23;100172.3;;;25.79;32.73242
59987;BME280;46181;51.498;5.392;2023-04-23T13:10:53;100170.7;;;25.97;31.30176
59987;BME280;46181;51.498;5.392;2023-04-23T13:15:23;100163;;;25.9;31.08496
59987;BME280;46181;51.498;5.392;2023-04-23T13:19:53;100160.6;;;25.85;31.1875
59987;BME280;46181;51.498;5.392;2023-04-23T13:24:23;100149.2;;;25.68;31.33984
59987;BME280;46181;51.498;5.392;2023-04-23T13:28:53;100143.9;;;25.32;31.65527
59987;BME280;46181;51.498;5.392;2023-04-23T13:33:23;100137;;;25.02;31.49316
59987;BME280;46181;51.498;5.392;2023-04-23T13:37:53;100135.2;;;24.68;31.34082
59987;BME280;46181;51.498;5.392;2023-04-23T13:42:23;100133.7;;;24.44;31.39355
59987;BME280;46181;51.498;5.392;2023-04-23T13:46:53;100137.2;;;24.11;31.97949
59987;BME280;46181;51.498;5.392;2023-04-23T13:51:23;100129.1;;;23.78;33.8252
59987;BME280;46181;51.498;5.392;2023-04-23T13:55:54;100131.5;;;23.33;36.69727
59987;BME280;46181;51.498;5.392;2023-04-23T14:00:25;100139.3;;;22.67;38.42383
59987;BME280;46181;51.498;5.392;2023-04-23T14:04:53;100142.9;;;21.91;41.16992
59987;BME280;46181;51.498;5.392;2023-04-23T14:09:23;100153;;;21.27;43.49805
59987;BME280;46181;51.498;5.392;2023-04-23T14:13:53;100151;;;20.68;45.12891
59987;BME280;46181;51.498;5.392;2023-04-23T14:18:23;100154.1;;;20.17;47.39844
59987;BME280;46181;51.498;5.392;2023-04-23T14:23:01;100169;;;19.75;49.23242
59987;BME280;46181;51.498;5.392;2023-04-23T14:27:23;100161;;;19.23;50.95898
59987;BME280;46181;51.498;5.392;2023-04-23T14:31:53;100179.4;;;18.86;52.6416
59987;BME280;46181;51.498;5.392;2023-04-23T14:36:24;100195.7;;;18.6;53.93066
59987;BME280;46181;51.498;5.392;2023-04-23T14:40:53;100174.4;;;18.36;55.08203
59987;BME280;46181;51.498;5.392;2023-04-23T14:45:24;100165.6;;;18.27;55.97852
59987;BME280;46181;51.498;5.392;2023-04-23T14:49:53;100153.7;;;18.34;56.91504
59987;BME280;46181;51.498;5.392;2023-04-23T14:54:23;100139.6;;;18.41;57.47363
59987;BME280;46181;51.498;5.392;2023-04-23T14:58:53;100139.5;;;18.5;57.79492
59987;BME280;46181;51.498;5.392;2023-04-23T15:03:24;100137.7;;;18.51;58.46191
59987;BME280;46181;51.498;5.392;2023-04-23T15:07:54;100128.8;;;18.52;58.50977
59987;BME280;46181;51.498;5.392;2023-04-23T15:12:52;100121.8;;;18.43;59.14941
59987;BME280;46181;51.498;5.392;2023-04-23T15:16:53;100123;;;18.53;58.96973
59987;BME280;46181;51.498;5.392;2023-04-23T15:21:23;100118.1;;;18.46;59.37207
59987;BME280;46181;51.498;5.392;2023-04-23T15:25:53;100116.7;;;18.49;59.60645
59987;BME280;46181;51.498;5.392;2023-04-23T15:30:24;100108.4;;;18.51;59.76855
59987;BME280;46181;51.498;5.392;2023-04-23T15:34:53;100104;;;18.51;60.14551
59987;BME280;46181;51.498;5.392;2023-04-23T15:39:23;100077;;;18.47;59.94629
59987;BME280;46181;51.498;5.392;2023-04-23T15:43:53;100065.9;;;18.37;60.04785
59987;BME280;46181;51.498;5.392;2023-04-23T15:48:24;100055.7;;;18.27;60.17188
59987;BME280;46181;51.498;5.392;2023-04-23T15:52:53;100045.5;;;18.18;60.58203
59987;BME280;46181;51.498;5.392;2023-04-23T15:57:23;100031.3;;;18.12;60.66602
59987;BME280;46181;51.498;5.392;2023-04-23T16:01:53;100013.3;;;18.04;61.14844
59987;BME280;46181;51.498;5.392;2023-04-23T16:06:23;99995.11;;;18.01;61.42871
59987;BME280;46181;51.498;5.392;2023-04-23T16:10:53;99983.55;;;18.01;61.77246
59987;BME280;46181;51.498;5.392;2023-04-23T16:15:24;99970.38;;;18.17;61.62305
59987;BME280;46181;51.498;5.392;2023-04-23T16:19:53;99960.94;;;18.35;61.46484
59987;BME280;46181;51.498;5.392;2023-04-23T16:24:24;99960.67;;;18.59;61.03906
59987;BME280;46181;51.498;5.392;2023-04-23T16:28:53;99949.09;;;18.7;60.87109
59987;BME280;46181;51.498;5.392;2023-04-23T16:33:23;99940.5;;;18.76;60.54688
59987;BME280;46181;51.498;5.392;2023-04-23T16:37:53;99930.27;;;18.75;60.52246
59987;BME280;46181;51.498;5.392;2023-04-23T16:42:24;99915.14;;;18.75;60.22461
59987;BME280;46181;51.498;5.392;2023-04-23T16:46:54;99901.98;;;18.69;60.49121
59987;BME280;46181;51.498;5.392;2023-04-23T16:51:23;99896.86;;;18.67;60.43164
59987;BME280;46181;51.498;5.392;2023-04-23T16:55:54;99884.44;;;18.68;60.73047
59987;BME280;46181;51.498;5.392;2023-04-23T17:00:24;99877.52;;;18.71;60.75879
59987;BME280;46181;51.498;5.392;2023-04-23T17:04:53;99871.77;;;18.74;61.00293
59987;BME280;46181;51.498;5.392;2023-04-23T17:09:24;99859.79;;;18.8;61.13672
59987;BME280;46181;51.498;5.392;2023-04-23T17:13:54;99848.32;;;18.81;61.07031
59987;BME280;46181;51.498;5.392;2023-04-23T17:18:23;99836.48;;;18.81;61.26465
59987;BME280;46181;51.498;5.392;2023-04-23T17:22:53;99830.88;;;18.76;61.18848
59987;BME280;46181;51.498;5.392;2023-04-23T17:27:23;99815.97;;;18.69;61.11035
59987;BME280;46181;51.498;5.392;2023-04-23T17:31:54;99819.42;;;18.65;61.34473
59987;BME280;46181;51.498;5.392;2023-04-23T17:36:24;99804.63;;;18.54;61.34082
59987;BME280;46181;51.498;5.392;2023-04-23T17:40:54;99793.25;;;18.41;61.43848
59987;BME280;46181;51.498;5.392;2023-04-23T17:45:24;99788.37;;;18.34;61.64551
59987;BME280;46181;51.498;5.392;2023-04-23T17:49:53;99782.93;;;18.29;61.53711
59987;BME280;46181;51.498;5.392;2023-04-23T17:54:23;99764.42;;;18.19;61.46484
59987;BME280;46181;51.498;5.392;2023-04-23T17:58:53;99761.16;;;18.07;61.50488
59987;BME280;46181;51.498;5.392;2023-04-23T18:03:24;99753.2;;;17.88;61.43457
59987;BME280;46181;51.498;5.392;2023-04-23T18:07:53;99747.32;;;17.67;61.77051
59987;BME280;46181;51.498;5.392;2023-04-23T18:12:24;99741.64;;;17.59;62.02148
59987;BME280;46181;51.498;5.392;2023-04-23T18:16:54;99726.13;;;17.59;62.11328
59987;BME280;46181;51.498;5.392;2023-04-23T18:21:24;99719.15;;;17.6;62
59987;BME280;46181;51.498;5.392;2023-04-23T18:25:53;99719.8;;;17.58;61.98633
59987;BME280;46181;51.498;5.392;2023-04-23T18:30:24;99726.63;;;17.46;62.11816
59987;BME280;46181;51.498;5.392;2023-04-23T18:34:54;99725.27;;;17.36;62.0918
59987;BME280;46181;51.498;5.392;2023-04-23T18:39:24;99727.52;;;17.17;62.5918
59987;BME280;46181;51.498;5.392;2023-04-23T18:43:54;99734.19;;;17.08;62.80566
59987;BME280;46181;51.498;5.392;2023-04-23T18:48:49;99735.02;;;16.81;63.00781
59987;BME280;46181;51.498;5.392;2023-04-23T18:52:53;99735.05;;;16.82;62.41504
59987;BME280;46181;51.498;5.392;2023-04-23T18:57:24;99718.59;;;16.68;62.09961
59987;BME280;46181;51.498;5.392;2023-04-23T19:01:54;99717.95;;;16.5;62.0293
59987;BME280;46181;51.498;5.392;2023-04-23T19:06:24;99720.7;;;16.42;62.01855
59987;BME280;46181;51.498;5.392;2023-04-23T19:10:54;99717.28;;;16.36;61.66797
59987;BME280;46181;51.498;5.392;2023-04-23T19:15:24;99722.26;;;16.29;60.97461
59987;BME280;46181;51.498;5.392;2023-04-23T19:19:54;99725.27;;;16.23;60.66797
59987;BME280;46181;51.498;5.392;2023-04-23T19:24:24;99723.31;;;16.14;60.84082
59987;BME280;46181;51.498;5.392;2023-04-23T19:28:54;99711.75;;;16.09;60.70801
59987;BME280;46181;51.498;5.392;2023-04-23T19:33:24;99716.8;;;15.93;60.71875
59987;BME280;46181;51.498;5.392;2023-04-23T19:37:54;99707.03;;;15.81;61.06836
59987;BME280;46181;51.498;5.392;2023-04-23T19:42:24;99700.59;;;15.76;61.50391
59987;BME280;46181;51.498;5.392;2023-04-23T19:46:54;99689.94;;;15.66;61.51367
59987;BME280;46181;51.498;5.392;2023-04-23T19:51:25;99684.74;;;15.48;61.93164
59987;BME280;46181;51.498;5.392;2023-04-23T19:55:54;99684.06;;;15.37;62.43848
59987;BME280;46181;51.498;5.392;2023-04-23T20:00:25;99683.84;;;15.21;63.01855
59987;BME280;46181;51.498;5.392;2023-04-23T20:04:54;99679.93;;;15.13;63.34766
59987;BME280;46181;51.498;5.392;2023-04-23T20:09:24;99679.08;;;15.04;63.8457
59987;BME280;46181;51.498;5.392;2023-04-23T20:13:54;99688.86;;;15.02;64.1709
59987;BME280;46181;51.498;5.392;2023-04-23T20:18:24;99699.09;;;15.02;64.47949
59987;BME280;46181;51.498;5.392;2023-04-23T20:22:54;99714.88;;;14.99;64.80469
59987;BME280;46181;51.498;5.392;2023-04-23T20:27:24;99734.73;;;14.94;64.91016
59987;BME280;46181;51.498;5.392;2023-04-23T20:31:54;99737.03;;;14.94;64.77344
59987;BME280;46181;51.498;5.392;2023-04-23T20:36:24;99754.38;;;14.99;64.50879
59987;BME280;46181;51.498;5.392;2023-04-23T20:40:54;99772.63;;;14.96;63.74316
59987;BME280;46181;51.498;5.392;2023-04-23T20:45:24;99780.96;;;14.88;63.61816
59987;BME280;46181;51.498;5.392;2023-04-23T20:49:54;99784.05;;;14.77;63.71777
59987;BME280;46181;51.498;5.392;2023-04-23T20:54:24;99790.36;;;14.73;63.59766
59987;BME280;46181;51.498;5.392;2023-04-23T20:58:54;99800.4;;;14.76;63.72656
59987;BME280;46181;51.498;5.392;2023-04-23T21:03:24;99809.37;;;14.74;63.74609
59987;BME280;46181;51.498;5.392;2023-04-23T21:07:54;99823.44;;;14.74;63.61035
59987;BME280;46181;51.498;5.392;2023-04-23T21:12:24;99814.66;;;14.68;63.57813
59987;BME280;46181;51.498;5.392;2023-04-23T21:16:54;99815.61;;;14.64;63.62793
59987;BME280;46181;51.498;5.392;2023-04-23T21:21:24;99817.7;;;14.62;63.45703
59987;BME280;46181;51.498;5.392;2023-04-23T21:25:54;99825.78;;;14.6;63.33984
59987;BME280;46181;51.498;5.392;2023-04-23T21:30:28;99831.21;;;14.59;63.47363
59987;BME280;46181;51.498;5.392;2023-04-23T21:34:54;99834.63;;;14.63;63.18457
59987;BME280;46181;51.498;5.392;2023-04-23T21:39:24;99836.66;;;14.62;63.19434
59987;BME280;46181;51.498;5.392;2023-04-23T21:43:54;99840.84;;;14.61;63.06836
59987;BME280;46181;51.498;5.392;2023-04-23T21:48:24;99848.17;;;14.58;62.81543
59987;BME280;46181;51.498;5.392;2023-04-23T21:52:54;99847.29;;;14.54;62.70703
59987;BME280;46181;51.498;5.392;2023-04-23T21:57:24;99851.3;;;14.47;62.83398
59987;BME280;46181;51.498;5.392;2023-04-23T22:01:54;99850.21;;;14.46;62.89941
59987;BME280;46181;51.498;5.392;2023-04-23T22:06:24;99846.22;;;14.48;63.25488
59987;BME280;46181;51.498;5.392;2023-04-23T22:10:54;99854.05;;;14.56;63.1416
59987;BME280;46181;51.498;5.392;2023-04-23T22:15:25;99857.59;;;14.62;62.96777
59987;BME280;46181;51.498;5.392;2023-04-23T22:19:54;99858.44;;;14.64;62.91504
59987;BME280;46181;51.498;5.392;2023-04-23T22:24:24;99863.91;;;14.71;62.84473
59987;BME280;46181;51.498;5.392;2023-04-23T22:28:54;99862.68;;;14.75;62.63574
59987;BME280;46181;51.498;5.392;2023-04-23T22:33:24;99865.02;;;14.73;62.59863
59987;BME280;46181;51.498;5.392;2023-04-23T22:37:54;99871.88;;;14.75;62.45508
59987;BME280;46181;51.498;5.392;2023-04-23T22:42:24;99869.68;;;14.76;62.36426
59987;BME280;46181;51.498;5.392;2023-04-23T22:46:54;99882.77;;;14.72;62.4043
59987;BME280;46181;51.498;5.392;2023-04-23T22:51:24;99884.09;;;14.69;62.3877
59987;BME280;46181;51.498;5.392;2023-04-23T22:55:54;99891.69;;;14.58;62.22559
59987;BME280;46181;51.498;5.392;2023-04-23T23:00:25;99892.63;;;14.44;62.3877
59987;BME280;46181;51.498;5.392;2023-04-23T23:04:54;99898.08;;;14.46;62.60449